createdAt,value
2018-07-27T00:02:59.560Z,19.25
2018-07-27T00:08:04.336Z,19.15
2018-07-27T00:13:09.222Z,19.05
2018-07-27T00:18:13.584Z,19.07
2018-07-27T00:23:18.245Z,18.96
2018-07-27T00:28:22.921Z,18.90
2018-07-27T00:33:27.646Z,18.83
2018-07-27T00:38:32.374Z,18.76
2018-07-27T00:43:37.211Z,18.63
2018-07-27T00:48:41.955Z,18.56
2018-07-27T00:53:46.595Z,18.59
2018-07-27T00:58:51.412Z,18.51
2018-07-27T01:03:56.101Z,18.42
2018-07-27T01:09:00.799Z,18.34
2018-07-27T01:14:05.720Z,18.28
2018-07-27T01:19:10.462Z,18.27
2018-07-27T01:24:15.221Z,18.22
2018-07-27T01:29:20.152Z,18.09
2018-07-27T01:34:24.922Z,18.09
2018-07-27T01:39:29.596Z,18.09
2018-07-27T01:44:34.251Z,17.92
2018-07-27T01:49:39.057Z,17.97
2018-07-27T01:54:43.765Z,17.93
2018-07-27T01:59:48.488Z,17.81
2018-07-27T02:04:53.192Z,17.77
2018-07-27T02:09:57.909Z,17.77
2018-07-27T02:15:02.594Z,17.67
2018-07-27T02:20:07.308Z,17.59
2018-07-27T02:25:11.968Z,17.43
2018-07-27T02:30:16.960Z,17.59
2018-07-27T02:35:21.672Z,17.50
2018-07-27T02:40:26.512Z,17.52
2018-07-27T02:45:31.365Z,17.35
2018-07-27T02:50:36.036Z,17.30
2018-07-27T02:55:40.854Z,17.25
2018-07-27T03:00:45.770Z,17.20
2018-07-27T03:05:50.611Z,17.10
2018-07-27T03:10:55.327Z,17.22
2018-07-27T03:16:00.119Z,17.24
2018-07-27T03:21:04.833Z,17.26
2018-07-27T03:26:09.594Z,17.22
2018-07-27T03:31:14.287Z,17.07
2018-07-27T03:36:18.997Z,17.00
2018-07-27T03:41:23.736Z,16.93
2018-07-27T03:46:28.626Z,16.98
2018-07-27T03:51:33.473Z,16.88
2018-07-27T03:56:38.249Z,16.88
2018-07-27T04:01:43.044Z,17.00
2018-07-27T04:06:47.732Z,17.17
2018-07-27T04:11:52.397Z,17.27
2018-07-27T04:16:56.754Z,17.89
2018-07-27T04:22:01.551Z,18.75
2018-07-27T04:27:06.349Z,19.47
2018-07-27T04:32:11.163Z,20.07
2018-07-27T04:37:15.823Z,20.58
2018-07-27T04:42:20.566Z,22.09
2018-07-27T04:47:25.361Z,22.54
2018-07-27T04:52:30.497Z,22.25
2018-07-27T04:57:35.154Z,23.27
2018-07-27T05:02:40.113Z,23.58
2018-07-27T05:07:44.946Z,24.31
2018-07-27T05:12:49.585Z,23.90
2018-07-27T05:17:54.314Z,24.56
2018-07-27T05:22:58.978Z,24.54
2018-07-27T05:28:03.689Z,25.72
2018-07-27T05:33:08.419Z,25.18
2018-07-27T05:38:13.209Z,24.88
2018-07-27T05:43:18.050Z,25.36
2018-07-27T05:48:22.787Z,25.62
2018-07-27T05:53:27.536Z,25.00
2018-07-27T05:58:32.247Z,25.45
2018-07-27T06:03:36.894Z,26.11
2018-07-27T06:08:41.628Z,26.25
2018-07-27T06:13:46.375Z,25.57
2018-07-27T06:18:51.098Z,25.40
2018-07-27T06:23:55.876Z,25.75
2018-07-27T06:29:00.557Z,26.75
2018-07-27T06:34:05.227Z,27.00
2018-07-27T06:39:11.731Z,26.81
2018-07-27T06:44:16.433Z,26.83
2018-07-27T06:49:21.196Z,26.00
2018-07-27T06:54:25.886Z,26.36
2018-07-27T06:59:30.667Z,26.85
2018-07-27T07:04:35.349Z,27.96
2018-07-27T07:09:39.764Z,27.36
2018-07-27T07:14:44.432Z,27.62
2018-07-27T07:19:49.097Z,27.81
2018-07-27T07:24:53.870Z,28.36
2018-07-27T07:29:58.804Z,28.50
2018-07-27T07:35:03.533Z,29.24
2018-07-27T07:40:09.230Z,29.19
2018-07-27T07:45:13.964Z,29.63
2018-07-27T07:50:18.725Z,30.01
2018-07-27T07:55:23.544Z,29.98
2018-07-27T08:00:28.424Z,30.33
2018-07-27T08:05:33.164Z,30.03
2018-07-27T08:10:37.887Z,30.21
2018-07-27T08:15:42.579Z,30.16
2018-07-27T08:20:47.383Z,30.75
2018-07-27T08:27:04.030Z,31.18
2018-07-27T08:32:09.009Z,31.62
2018-07-27T08:37:13.961Z,31.49
2018-07-27T08:42:18.738Z,31.31
2018-07-27T08:47:23.491Z,31.09
2018-07-27T08:52:28.096Z,31.00
2018-07-27T08:57:32.891Z,31.36
2018-07-27T09:02:37.651Z,31.33
2018-07-27T09:07:42.372Z,31.90
2018-07-27T09:12:47.096Z,31.61
2018-07-27T09:17:51.831Z,32.05
2018-07-27T09:22:56.609Z,32.05
2018-07-27T09:28:01.388Z,32.67
2018-07-27T09:33:06.205Z,32.72
2018-07-27T09:38:10.933Z,32.87
2018-07-27T09:43:16.505Z,32.51
2018-07-27T09:48:21.309Z,32.37
2018-07-27T09:53:26.377Z,32.12
2018-07-27T09:58:31.188Z,32.45
2018-07-27T10:03:35.976Z,32.93
2018-07-27T10:08:40.684Z,32.47
2018-07-27T10:13:46.990Z,32.90
2018-07-27T10:18:51.686Z,32.95
2018-07-27T10:23:56.629Z,32.93
2018-07-27T10:29:01.422Z,33.19
2018-07-27T10:34:06.263Z,33.58
2018-07-27T10:39:12.156Z,33.79
2018-07-27T10:44:17.225Z,33.93
2018-07-27T10:49:22.041Z,32.64
2018-07-27T10:54:26.872Z,33.18
2018-07-27T10:59:31.701Z,32.86
2018-07-27T11:04:37.877Z,33.23
2018-07-27T11:09:42.685Z,33.98
2018-07-27T11:14:47.330Z,34.27
2018-07-27T11:19:52.672Z,34.45
2018-07-27T11:24:57.479Z,34.32
2018-07-27T11:30:02.452Z,34.95
2018-07-27T11:35:07.203Z,34.94
2018-07-27T11:40:13.292Z,35.44
2018-07-27T11:45:18.077Z,35.03
2018-07-27T11:50:22.811Z,34.18
2018-07-27T11:55:27.534Z,34.80
2018-07-27T12:00:32.253Z,35.33
2018-07-27T12:05:36.961Z,35.73
2018-07-27T12:10:41.668Z,35.69
2018-07-27T12:15:46.449Z,34.66
2018-07-27T12:20:51.651Z,34.99
2018-07-27T12:25:56.160Z,33.71
2018-07-27T12:31:00.974Z,33.77
2018-07-27T12:36:06.204Z,34.34
2018-07-27T12:41:11.062Z,34.86
2018-07-27T12:46:15.837Z,35.18
2018-07-27T12:51:20.478Z,35.13
2018-07-27T12:56:25.194Z,35.17
2018-07-27T13:01:29.970Z,35.36
2018-07-27T13:06:34.747Z,35.11
2018-07-27T13:11:40.518Z,34.87
2018-07-27T13:16:45.253Z,35.32
2018-07-27T13:21:50.243Z,34.99
2018-07-27T13:26:55.091Z,35.49
2018-07-27T13:32:00.584Z,35.22
2018-07-27T13:37:05.870Z,35.04
2018-07-27T13:42:13.084Z,35.49
2018-07-27T13:47:18.456Z,35.20
2018-07-27T13:52:23.259Z,35.19
2018-07-27T13:57:28.013Z,35.51
2018-07-27T14:02:32.880Z,35.63
2018-07-27T14:08:37.511Z,36.43
2018-07-27T14:13:42.272Z,35.83
2018-07-27T14:18:47.038Z,35.60
2018-07-27T14:23:51.995Z,36.01
2018-07-27T14:34:11.742Z,36.16
2018-07-27T14:39:17.081Z,36.44
2018-07-27T14:44:21.804Z,36.30
2018-07-27T14:49:26.602Z,36.41
2018-07-27T14:54:31.415Z,36.17
2018-07-27T14:59:36.142Z,36.36
2018-07-27T15:04:40.931Z,35.75
2018-07-27T15:09:48.973Z,36.27
2018-07-27T15:14:53.733Z,36.49
2018-07-27T15:19:58.645Z,36.63
2018-07-27T15:25:03.435Z,35.92
2018-07-27T15:30:08.486Z,36.00
2018-07-27T15:35:13.301Z,36.58
2018-07-27T15:40:18.123Z,36.46
2018-07-27T15:45:22.831Z,35.99
2018-07-27T15:50:27.536Z,36.04
2018-07-27T15:55:32.310Z,36.22
2018-07-27T16:00:37.145Z,35.56
2018-07-27T16:05:42.131Z,34.91
2018-07-27T16:10:46.915Z,34.81
2018-07-27T16:15:51.691Z,34.35
2018-07-27T16:20:56.490Z,33.57
2018-07-27T16:26:01.178Z,32.64
2018-07-27T16:31:06.000Z,32.77
2018-07-27T16:36:10.789Z,32.66
2018-07-27T16:41:15.563Z,32.51
2018-07-27T16:46:20.336Z,32.12
2018-07-27T16:51:30.720Z,32.79
2018-07-27T16:56:35.422Z,33.20
2018-07-27T17:01:40.105Z,33.09
2018-07-27T17:06:44.833Z,33.31
2018-07-27T17:11:49.705Z,33.43
2018-07-27T17:16:54.571Z,33.98
2018-07-27T17:21:59.368Z,33.85
2018-07-27T17:27:04.152Z,33.54
2018-07-27T17:32:09.076Z,33.21
2018-07-27T17:37:13.882Z,32.63
2018-07-27T17:42:18.729Z,32.09
2018-07-27T17:47:23.608Z,31.72
2018-07-27T17:52:28.065Z,31.49
2018-07-27T17:57:32.793Z,31.23
2018-07-27T18:02:37.978Z,31.09
2018-07-27T18:07:42.892Z,30.91
2018-07-27T18:12:47.483Z,30.77
2018-07-27T18:17:52.231Z,30.59
2018-07-27T18:22:56.996Z,30.47
2018-07-27T18:28:01.846Z,30.32
2018-07-27T18:33:07.022Z,30.06
2018-07-27T18:38:12.065Z,29.87
2018-07-27T18:43:16.942Z,29.63
2018-07-27T18:48:21.975Z,29.26
2018-07-27T18:53:26.745Z,28.86
2018-07-27T18:58:31.430Z,28.44
2018-07-27T19:03:36.247Z,28.36
2018-07-27T19:08:41.354Z,27.93
2018-07-27T19:13:46.142Z,27.41
2018-07-27T19:18:51.079Z,26.97
2018-07-27T19:23:55.889Z,26.86
2018-07-27T19:29:00.679Z,26.52
2018-07-27T19:34:05.437Z,26.33
2018-07-27T19:39:12.139Z,26.23
2018-07-27T19:44:16.916Z,25.85
2018-07-27T19:49:21.925Z,25.65
2018-07-27T19:54:26.775Z,25.46
2018-07-27T19:59:31.615Z,25.13
2018-07-27T20:04:36.474Z,25.06
2018-07-27T20:09:41.347Z,24.97
2018-07-27T20:14:46.207Z,24.75
2018-07-27T20:19:50.987Z,24.61
2018-07-27T20:24:55.972Z,24.51
2018-07-27T20:30:00.945Z,24.31
2018-07-27T20:35:05.705Z,24.06
2018-07-27T20:40:10.660Z,24.07
2018-07-27T20:45:15.500Z,23.97
2018-07-27T20:50:20.382Z,23.72
2018-07-27T20:55:25.169Z,23.65
2018-07-27T21:00:29.922Z,23.49
2018-07-27T21:05:34.788Z,23.35
2018-07-27T21:10:39.595Z,23.18
2018-07-27T21:15:44.267Z,23.15
2018-07-27T21:20:49.418Z,23.04
2018-07-27T21:25:54.259Z,22.77
2018-07-27T21:30:58.989Z,22.61
2018-07-27T21:36:03.926Z,22.46
2018-07-27T21:41:08.734Z,22.56
2018-07-27T21:46:13.617Z,22.49
2018-07-27T21:51:19.306Z,22.28
2018-07-27T21:56:23.995Z,22.11
2018-07-27T22:01:28.690Z,22.16
2018-07-27T22:06:33.064Z,21.97
2018-07-27T22:11:38.132Z,21.93
2018-07-27T22:16:43.905Z,21.65
2018-07-27T22:21:49.319Z,21.71
2018-07-27T22:26:55.457Z,21.60
2018-07-27T22:32:00.820Z,21.41
2018-07-27T22:37:06.952Z,21.43
2018-07-27T22:42:11.814Z,21.38
2018-07-27T22:47:16.622Z,21.11
2018-07-27T22:52:21.628Z,20.95
2018-07-27T22:57:26.697Z,20.84
2018-07-27T23:02:31.706Z,20.99
2018-07-27T23:07:36.736Z,20.83
2018-07-27T23:12:41.525Z,20.66
2018-07-27T23:17:46.354Z,20.49
2018-07-27T23:22:51.284Z,20.50
2018-07-27T23:27:56.054Z,20.37
2018-07-27T23:33:00.857Z,20.45
2018-07-27T23:38:05.819Z,20.42
2018-07-27T23:43:10.625Z,20.12
2018-07-27T23:48:15.429Z,20.06
2018-07-27T23:53:20.197Z,19.98
2018-07-27T23:58:24.886Z,19.94
